sensor_id;sensor_type;location;lat;lon;timestamp;P1;durP1;ratioP1;P2;durP2;ratioP2
17369;SDS011;8802;52.402;4.920;2023-04-25T00:01:55;9.80;;;2.85;;
17369;SDS011;8802;52.402;4.920;2023-04-25T00:04:24;12.38;;;3.80;;
17369;SDS011;8802;52.402;4.920;2023-04-25T00:06:52;12.07;;;3.15;;
17369;SDS011;8802;52.402;4.920;2023-04-25T00:09:19;8.60;;;3.25;;
17369;SDS011;8802;52.402;4.920;2023-04-25T00:11:46;9.70;;;3.15;;
17369;SDS011;8802;52.402;4.920;2023-04-25T00:14:13;10.55;;;3.22;;
17369;SDS011;8802;52.402;4.920;2023-04-25T00:16:40;7.30;;;2.70;;
17369;SDS011;8802;52.402;4.920;2023-04-25T00:19:08;11.18;;;3.42;;
17369;SDS011;8802;52.402;4.920;2023-04-25T00:21:37;11.93;;;2.90;;
17369;SDS011;8802;52.402;4.920;2023-04-25T00:24:05;11.93;;;2.85;;
17369;SDS011;8802;52.402;4.920;2023-04-25T00:26:33;13.32;;;3.45;;
17369;SDS011;8802;52.402;4.920;2023-04-25T00:29:00;8.85;;;2.92;;
17369;SDS011;8802;52.402;4.920;2023-04-25T00:31:27;8.57;;;2.92;;
17369;SDS011;8802;52.402;4.920;2023-04-25T00:33:54;9.55;;;2.50;;
17369;SDS011;8802;52.402;4.920;2023-04-25T00:36:21;7.82;;;2.70;;
17369;SDS011;8802;52.402;4.920;2023-04-25T00:38:49;5.75;;;2.33;;
17369;SDS011;8802;52.402;4.920;2023-04-25T00:41:16;8.57;;;2.70;;
17369;SDS011;8802;52.402;4.920;2023-04-25T00:43:44;7.65;;;2.80;;
17369;SDS011;8802;52.402;4.920;2023-04-25T00:46:12;7.95;;;2.47;;
17369;SDS011;8802;52.402;4.920;2023-04-25T00:48:39;6.88;;;2.60;;
17369;SDS011;8802;52.402;4.920;2023-04-25T00:51:06;7.53;;;2.60;;
17369;SDS011;8802;52.402;4.920;2023-04-25T00:53:33;10.15;;;2.60;;
17369;SDS011;8802;52.402;4.920;2023-04-25T00:56:01;5.05;;;2.72;;
17369;SDS011;8802;52.402;4.920;2023-04-25T00:58:29;7.53;;;2.67;;
17369;SDS011;8802;52.402;4.920;2023-04-25T01:00:56;11.52;;;2.95;;
17369;SDS011;8802;52.402;4.920;2023-04-25T01:03:24;7.60;;;2.75;;
17369;SDS011;8802;52.402;4.920;2023-04-25T01:05:53;10.23;;;2.80;;
17369;SDS011;8802;52.402;4.920;2023-04-25T01:08:21;7.57;;;2.67;;
17369;SDS011;8802;52.402;4.920;2023-04-25T01:10:50;8.40;;;3.03;;
17369;SDS011;8802;52.402;4.920;2023-04-25T01:13:18;13.52;;;3.85;;
17369;SDS011;8802;52.402;4.920;2023-04-25T01:15:46;7.53;;;2.95;;
17369;SDS011;8802;52.402;4.920;2023-04-25T01:18:13;6.25;;;2.97;;
17369;SDS011;8802;52.402;4.920;2023-04-25T01:20:41;8.63;;;2.92;;
17369;SDS011;8802;52.402;4.920;2023-04-25T01:23:09;8.77;;;3.47;;
17369;SDS011;8802;52.402;4.920;2023-04-25T01:25:36;8.73;;;3.30;;
17369;SDS011;8802;52.402;4.920;2023-04-25T01:28:04;7.55;;;2.97;;
17369;SDS011;8802;52.402;4.920;2023-04-25T01:30:31;9.82;;;2.90;;
17369;SDS011;8802;52.402;4.920;2023-04-25T01:32:58;7.63;;;2.80;;
17369;SDS011;8802;52.402;4.920;2023-04-25T01:35:26;13.02;;;3.30;;
17369;SDS011;8802;52.402;4.920;2023-04-25T01:37:53;7.15;;;2.58;;
17369;SDS011;8802;52.402;4.920;2023-04-25T01:40:21;7.07;;;2.53;;
17369;SDS011;8802;52.402;4.920;2023-04-25T01:42:50;10.48;;;2.90;;
17369;SDS011;8802;52.402;4.920;2023-04-25T01:45:18;7.50;;;3.25;;
17369;SDS011;8802;52.402;4.920;2023-04-25T01:47:45;7.90;;;2.33;;
17369;SDS011;8802;52.402;4.920;2023-04-25T01:50:14;8.30;;;2.90;;
17369;SDS011;8802;52.402;4.920;2023-04-25T01:52:42;6.80;;;2.42;;
17369;SDS011;8802;52.402;4.920;2023-04-25T01:55:09;8.80;;;2.47;;
17369;SDS011;8802;52.402;4.920;2023-04-25T01:57:37;7.82;;;2.13;;
17369;SDS011;8802;52.402;4.920;2023-04-25T02:00:06;12.70;;;2.90;;
17369;SDS011;8802;52.402;4.920;2023-04-25T02:02:34;8.15;;;2.38;;
17369;SDS011;8802;52.402;4.920;2023-04-25T02:05:01;9.18;;;2.80;;
17369;SDS011;8802;52.402;4.920;2023-04-25T02:07:28;6.35;;;2.72;;
17369;SDS011;8802;52.402;4.920;2023-04-25T02:09:55;8.55;;;2.40;;
17369;SDS011;8802;52.402;4.920;2023-04-25T02:12:22;5.95;;;2.08;;
17369;SDS011;8802;52.402;4.920;2023-04-25T02:14:52;7.22;;;2.22;;
17369;SDS011;8802;52.402;4.920;2023-04-25T02:17:19;9.85;;;2.53;;
17369;SDS011;8802;52.402;4.920;2023-04-25T02:19:46;8.18;;;2.70;;
17369;SDS011;8802;52.402;4.920;2023-04-25T02:22:13;8.18;;;2.70;;
17369;SDS011;8802;52.402;4.920;2023-04-25T02:24:40;9.18;;;2.10;;
17369;SDS011;8802;52.402;4.920;2023-04-25T02:27:07;6.47;;;1.90;;
17369;SDS011;8802;52.402;4.920;2023-04-25T02:29:35;10.85;;;2.50;;
17369;SDS011;8802;52.402;4.920;2023-04-25T02:32:03;5.65;;;2.35;;
17369;SDS011;8802;52.402;4.920;2023-04-25T02:34:30;9.55;;;2.17;;
17369;SDS011;8802;52.402;4.920;2023-04-25T02:36:57;6.38;;;2.58;;
17369;SDS011;8802;52.402;4.920;2023-04-25T02:39:24;7.28;;;2.05;;
17369;SDS011;8802;52.402;4.920;2023-04-25T02:41:52;8.65;;;2.13;;
17369;SDS011;8802;52.402;4.920;2023-04-25T02:44:19;8.43;;;2.50;;
17369;SDS011;8802;52.402;4.920;2023-04-25T02:46:46;6.20;;;1.75;;
17369;SDS011;8802;52.402;4.920;2023-04-25T02:49:14;6.70;;;1.83;;
17369;SDS011;8802;52.402;4.920;2023-04-25T02:51:41;6.72;;;2.00;;
17369;SDS011;8802;52.402;4.920;2023-04-25T02:54:08;3.47;;;2.10;;
17369;SDS011;8802;52.402;4.920;2023-04-25T02:56:34;6.78;;;1.90;;
17369;SDS011;8802;52.402;4.920;2023-04-25T02:59:01;6.63;;;1.83;;
17369;SDS011;8802;52.402;4.920;2023-04-25T03:01:28;5.93;;;1.70;;
17369;SDS011;8802;52.402;4.920;2023-04-25T03:03:55;3.47;;;1.95;;
17369;SDS011;8802;52.402;4.920;2023-04-25T03:06:23;5.30;;;1.75;;
17369;SDS011;8802;52.402;4.920;2023-04-25T03:08:50;2.60;;;1.50;;
17369;SDS011;8802;52.402;4.920;2023-04-25T03:11:17;7.22;;;1.75;;
17369;SDS011;8802;52.402;4.920;2023-04-25T03:13:45;7.43;;;1.80;;
17369;SDS011;8802;52.402;4.920;2023-04-25T03:16:12;8.15;;;1.90;;
17369;SDS011;8802;52.402;4.920;2023-04-25T03:18:39;7.22;;;1.80;;
17369;SDS011;8802;52.402;4.920;2023-04-25T03:21:05;7.28;;;1.80;;
17369;SDS011;8802;52.402;4.920;2023-04-25T03:23:34;3.00;;;1.20;;
17369;SDS011;8802;52.402;4.920;2023-04-25T03:26:00;5.18;;;1.60;;
17369;SDS011;8802;52.402;4.920;2023-04-25T03:28:27;6.07;;;1.70;;
17369;SDS011;8802;52.402;4.920;2023-04-25T03:30:54;6.78;;;1.58;;
17369;SDS011;8802;52.402;4.920;2023-04-25T03:33:21;3.88;;;1.40;;
17369;SDS011;8802;52.402;4.920;2023-04-25T03:35:48;5.65;;;2.17;;
17369;SDS011;8802;52.402;4.920;2023-04-25T03:38:16;5.13;;;1.48;;
17369;SDS011;8802;52.402;4.920;2023-04-25T03:40:44;5.43;;;1.38;;
17369;SDS011;8802;52.402;4.920;2023-04-25T03:43:11;5.57;;;1.77;;
17369;SDS011;8802;52.402;4.920;2023-04-25T03:45:38;5.50;;;1.33;;
17369;SDS011;8802;52.402;4.920;2023-04-25T03:48:05;4.25;;;1.63;;
17369;SDS011;8802;52.402;4.920;2023-04-25T03:50:32;6.38;;;1.73;;
17369;SDS011;8802;52.402;4.920;2023-04-25T03:52:59;4.68;;;1.60;;
17369;SDS011;8802;52.402;4.920;2023-04-25T03:55:26;4.63;;;1.58;;
17369;SDS011;8802;52.402;4.920;2023-04-25T03:57:54;4.80;;;1.30;;
17369;SDS011;8802;52.402;4.920;2023-04-25T04:00:23;6.82;;;1.55;;
17369;SDS011;8802;52.402;4.920;2023-04-25T04:02:50;5.80;;;1.40;;
17369;SDS011;8802;52.402;4.920;2023-04-25T04:05:17;5.95;;;1.70;;
17369;SDS011;8802;52.402;4.920;2023-04-25T04:07:43;5.00;;;1.40;;
17369;SDS011;8802;52.402;4.920;2023-04-25T04:10:10;5.13;;;2.08;;
17369;SDS011;8802;52.402;4.920;2023-04-25T04:12:38;4.22;;;1.60;;
17369;SDS011;8802;52.402;4.920;2023-04-25T04:15:07;4.60;;;1.77;;
17369;SDS011;8802;52.402;4.920;2023-04-25T04:17:34;3.38;;;1.80;;
17369;SDS011;8802;52.402;4.920;2023-04-25T04:20:02;4.30;;;1.50;;
17369;SDS011;8802;52.402;4.920;2023-04-25T04:22:29;3.47;;;1.25;;
17369;SDS011;8802;52.402;4.920;2023-04-25T04:24:56;4.47;;;1.40;;
17369;SDS011;8802;52.402;4.920;2023-04-25T04:27:23;4.32;;;1.50;;
17369;SDS011;8802;52.402;4.920;2023-04-25T04:29:50;6.07;;;1.52;;
17369;SDS011;8802;52.402;4.920;2023-04-25T04:32:19;5.30;;;1.88;;
17369;SDS011;8802;52.402;4.920;2023-04-25T04:34:48;8.02;;;1.50;;
17369;SDS011;8802;52.402;4.920;2023-04-25T04:37:15;5.90;;;1.70;;
17369;SDS011;8802;52.402;4.920;2023-04-25T04:39:42;5.88;;;1.67;;
17369;SDS011;8802;52.402;4.920;2023-04-25T04:42:10;5.38;;;1.73;;
17369;SDS011;8802;52.402;4.920;2023-04-25T04:44:37;6.55;;;1.67;;
17369;SDS011;8802;52.402;4.920;2023-04-25T04:47:05;3.17;;;1.65;;
17369;SDS011;8802;52.402;4.920;2023-04-25T04:49:33;3.97;;;1.52;;
17369;SDS011;8802;52.402;4.920;2023-04-25T04:52:00;5.22;;;1.70;;
17369;SDS011;8802;52.402;4.920;2023-04-25T04:54:26;5.03;;;1.48;;
17369;SDS011;8802;52.402;4.920;2023-04-25T04:56:53;5.55;;;1.88;;
17369;SDS011;8802;52.402;4.920;2023-04-25T04:59:21;4.88;;;1.75;;
17369;SDS011;8802;52.402;4.920;2023-04-25T05:01:48;6.38;;;1.80;;
17369;SDS011;8802;52.402;4.920;2023-04-25T05:04:15;6.85;;;1.88;;
17369;SDS011;8802;52.402;4.920;2023-04-25T05:06:43;9.30;;;2.08;;
17369;SDS011;8802;52.402;4.920;2023-04-25T05:09:10;7.22;;;1.90;;
17369;SDS011;8802;52.402;4.920;2023-04-25T05:11:36;3.88;;;1.52;;
17369;SDS011;8802;52.402;4.920;2023-04-25T05:14:04;5.82;;;1.73;;
17369;SDS011;8802;52.402;4.920;2023-04-25T05:16:30;5.18;;;1.85;;
17369;SDS011;8802;52.402;4.920;2023-04-25T05:18:57;7.18;;;1.75;;
17369;SDS011;8802;52.402;4.920;2023-04-25T05:21:24;4.78;;;2.00;;
17369;SDS011;8802;52.402;4.920;2023-04-25T05:23:53;9.40;;;2.17;;
17369;SDS011;8802;52.402;4.920;2023-04-25T05:26:20;4.32;;;1.90;;
17369;SDS011;8802;52.402;4.920;2023-04-25T05:28:47;7.05;;;2.25;;
17369;SDS011;8802;52.402;4.920;2023-04-25T05:31:16;6.30;;;2.15;;
17369;SDS011;8802;52.402;4.920;2023-04-25T05:33:43;6.85;;;2.15;;
17369;SDS011;8802;52.402;4.920;2023-04-25T05:36:09;9.23;;;2.03;;
17369;SDS011;8802;52.402;4.920;2023-04-25T05:38:36;8.18;;;2.13;;
17369;SDS011;8802;52.402;4.920;2023-04-25T05:41:05;6.85;;;2.20;;
17369;SDS011;8802;52.402;4.920;2023-04-25T05:43:32;5.80;;;2.33;;
17369;SDS011;8802;52.402;4.920;2023-04-25T05:45:59;5.72;;;2.20;;
17369;SDS011;8802;52.402;4.920;2023-04-25T05:48:26;7.35;;;2.10;;
17369;SDS011;8802;52.402;4.920;2023-04-25T05:50:53;6.47;;;2.22;;
17369;SDS011;8802;52.402;4.920;2023-04-25T05:53:20;5.40;;;2.33;;
17369;SDS011;8802;52.402;4.920;2023-04-25T05:55:47;5.28;;;1.98;;
17369;SDS011;8802;52.402;4.920;2023-04-25T05:58:15;7.43;;;2.00;;
17369;SDS011;8802;52.402;4.920;2023-04-25T06:00:42;4.43;;;2.05;;
17369;SDS011;8802;52.402;4.920;2023-04-25T06:03:09;9.88;;;1.95;;
17369;SDS011;8802;52.402;4.920;2023-04-25T06:05:36;7.65;;;2.13;;
17369;SDS011;8802;52.402;4.920;2023-04-25T06:08:03;3.67;;;1.58;;
17369;SDS011;8802;52.402;4.920;2023-04-25T06:10:30;7.30;;;1.95;;
17369;SDS011;8802;52.402;4.920;2023-04-25T06:12:57;8.13;;;1.98;;
17369;SDS011;8802;52.402;4.920;2023-04-25T06:15:25;5.60;;;1.92;;
17369;SDS011;8802;52.402;4.920;2023-04-25T06:17:52;7.95;;;2.35;;
17369;SDS011;8802;52.402;4.920;2023-04-25T06:20:18;7.70;;;1.98;;
17369;SDS011;8802;52.402;4.920;2023-04-25T06:22:48;6.15;;;2.20;;
17369;SDS011;8802;52.402;4.920;2023-04-25T06:25:15;3.88;;;1.65;;
17369;SDS011;8802;52.402;4.920;2023-04-25T06:27:42;4.82;;;1.40;;
17369;SDS011;8802;52.402;4.920;2023-04-25T06:30:09;6.28;;;1.60;;
17369;SDS011;8802;52.402;4.920;2023-04-25T06:32:38;5.35;;;1.80;;
17369;SDS011;8802;52.402;4.920;2023-04-25T06:35:05;6.35;;;1.65;;
17369;SDS011;8802;52.402;4.920;2023-04-25T06:37:33;7.50;;;1.90;;
17369;SDS011;8802;52.402;4.920;2023-04-25T06:39:59;4.88;;;1.58;;
17369;SDS011;8802;52.402;4.920;2023-04-25T06:42:27;6.35;;;1.70;;
17369;SDS011;8802;52.402;4.920;2023-04-25T06:44:54;6.50;;;1.65;;
17369;SDS011;8802;52.402;4.920;2023-04-25T06:47:21;4.78;;;1.38;;
17369;SDS011;8802;52.402;4.920;2023-04-25T06:49:49;7.63;;;1.65;;
17369;SDS011;8802;52.402;4.920;2023-04-25T06:52:16;6.78;;;1.80;;
17369;SDS011;8802;52.402;4.920;2023-04-25T06:54:43;8.10;;;2.05;;
17369;SDS011;8802;52.402;4.920;2023-04-25T06:57:10;5.45;;;1.65;;
17369;SDS011;8802;52.402;4.920;2023-04-25T06:59:37;5.43;;;1.30;;
17369;SDS011;8802;52.402;4.920;2023-04-25T07:02:04;6.65;;;1.30;;
17369;SDS011;8802;52.402;4.920;2023-04-25T07:04:31;6.53;;;1.38;;
17369;SDS011;8802;52.402;4.920;2023-04-25T07:07:00;7.00;;;1.77;;
17369;SDS011;8802;52.402;4.920;2023-04-25T07:09:27;6.90;;;1.83;;
17369;SDS011;8802;52.402;4.920;2023-04-25T07:11:54;5.50;;;1.40;;
17369;SDS011;8802;52.402;4.920;2023-04-25T07:14:21;5.05;;;1.77;;
17369;SDS011;8802;52.402;4.920;2023-04-25T07:16:49;5.45;;;1.77;;
17369;SDS011;8802;52.402;4.920;2023-04-25T07:19:15;5.10;;;1.60;;
17369;SDS011;8802;52.402;4.920;2023-04-25T07:21:42;7.03;;;1.45;;
17369;SDS011;8802;52.402;4.920;2023-04-25T07:24:10;5.95;;;1.70;;
17369;SDS011;8802;52.402;4.920;2023-04-25T07:26:37;7.88;;;1.70;;
17369;SDS011;8802;52.402;4.920;2023-04-25T07:29:04;8.07;;;1.90;;
17369;SDS011;8802;52.402;4.920;2023-04-25T07:31:31;5.43;;;1.40;;
17369;SDS011;8802;52.402;4.920;2023-04-25T07:33:58;7.75;;;1.80;;
17369;SDS011;8802;52.402;4.920;2023-04-25T07:36:25;8.77;;;1.92;;
17369;SDS011;8802;52.402;4.920;2023-04-25T07:38:52;8.25;;;1.55;;
17369;SDS011;8802;52.402;4.920;2023-04-25T07:41:20;4.82;;;1.67;;
17369;SDS011;8802;52.402;4.920;2023-04-25T07:43:48;4.28;;;1.10;;
17369;SDS011;8802;52.402;4.920;2023-04-25T07:46:14;2.35;;;0.70;;
17369;SDS011;8802;52.402;4.920;2023-04-25T07:48:41;3.83;;;1.20;;
17369;SDS011;8802;52.402;4.920;2023-04-25T07:51:08;2.72;;;0.93;;
17369;SDS011;8802;52.402;4.920;2023-04-25T07:53:35;3.97;;;0.88;;
17369;SDS011;8802;52.402;4.920;2023-04-25T07:56:03;5.03;;;1.02;;
17369;SDS011;8802;52.402;4.920;2023-04-25T07:58:32;3.63;;;1.15;;
17369;SDS011;8802;52.402;4.920;2023-04-25T08:00:58;3.22;;;1.00;;
17369;SDS011;8802;52.402;4.920;2023-04-25T08:03:25;6.38;;;1.45;;
17369;SDS011;8802;52.402;4.920;2023-04-25T08:05:52;3.95;;;1.33;;
17369;SDS011;8802;52.402;4.920;2023-04-25T08:08:19;6.40;;;1.27;;
17369;SDS011;8802;52.402;4.920;2023-04-25T08:10:46;4.45;;;1.00;;
17369;SDS011;8802;52.402;4.920;2023-04-25T08:13:13;4.15;;;1.08;;
17369;SDS011;8802;52.402;4.920;2023-04-25T08:15:41;3.95;;;1.25;;
17369;SDS011;8802;52.402;4.920;2023-04-25T08:18:08;5.22;;;0.95;;
17369;SDS011;8802;52.402;4.920;2023-04-25T08:20:35;4.65;;;1.00;;
17369;SDS011;8802;52.402;4.920;2023-04-25T08:23:02;5.40;;;1.17;;
17369;SDS011;8802;52.402;4.920;2023-04-25T08:25:30;3.85;;;0.98;;
17369;SDS011;8802;52.402;4.920;2023-04-25T08:27:57;4.80;;;1.00;;
17369;SDS011;8802;52.402;4.920;2023-04-25T08:30:24;5.43;;;1.10;;
17369;SDS011;8802;52.402;4.920;2023-04-25T08:32:53;4.75;;;1.40;;
17369;SDS011;8802;52.402;4.920;2023-04-25T08:35:20;4.68;;;1.52;;
17369;SDS011;8802;52.402;4.920;2023-04-25T08:37:47;5.80;;;1.40;;
17369;SDS011;8802;52.402;4.920;2023-04-25T08:40:15;4.70;;;1.75;;
17369;SDS011;8802;52.402;4.920;2023-04-25T08:42:42;3.40;;;1.00;;
17369;SDS011;8802;52.402;4.920;2023-04-25T08:45:09;3.85;;;0.82;;
17369;SDS011;8802;52.402;4.920;2023-04-25T08:47:37;5.78;;;0.90;;
17369;SDS011;8802;52.402;4.920;2023-04-25T08:50:06;4.78;;;1.13;;
17369;SDS011;8802;52.402;4.920;2023-04-25T08:52:35;4.15;;;1.20;;
17369;SDS011;8802;52.402;4.920;2023-04-25T08:55:04;4.32;;;1.05;;
17369;SDS011;8802;52.402;4.920;2023-04-25T08:57:35;5.30;;;1.10;;
17369;SDS011;8802;52.402;4.920;2023-04-25T09:00:04;2.95;;;1.00;;
17369;SDS011;8802;52.402;4.920;2023-04-25T09:02:33;4.68;;;1.08;;
17369;SDS011;8802;52.402;4.920;2023-04-25T09:05:00;2.17;;;0.98;;
17369;SDS011;8802;52.402;4.920;2023-04-25T09:07:30;7.57;;;1.20;;
17369;SDS011;8802;52.402;4.920;2023-04-25T09:09:57;3.58;;;0.90;;
17369;SDS011;8802;52.402;4.920;2023-04-25T09:12:27;4.38;;;1.08;;
17369;SDS011;8802;52.402;4.920;2023-04-25T09:15:06;7.50;;;1.20;;
17369;SDS011;8802;52.402;4.920;2023-04-25T09:17:34;3.88;;;0.85;;
17369;SDS011;8802;52.402;4.920;2023-04-25T09:20:05;3.92;;;0.80;;
17369;SDS011;8802;52.402;4.920;2023-04-25T09:22:35;4.88;;;1.10;;
17369;SDS011;8802;52.402;4.920;2023-04-25T09:25:03;5.50;;;0.88;;
17369;SDS011;8802;52.402;4.920;2023-04-25T09:27:33;4.20;;;0.98;;
17369;SDS011;8802;52.402;4.920;2023-04-25T09:30:00;4.03;;;1.27;;
17369;SDS011;8802;52.402;4.920;2023-04-25T09:32:29;4.65;;;1.23;;
17369;SDS011;8802;52.402;4.920;2023-04-25T09:34:56;2.97;;;1.17;;
17369;SDS011;8802;52.402;4.920;2023-04-25T09:37:24;3.10;;;0.90;;
17369;SDS011;8802;52.402;4.920;2023-04-25T09:39:54;5.22;;;1.33;;
17369;SDS011;8802;52.402;4.920;2023-04-25T09:42:21;4.47;;;1.13;;
17369;SDS011;8802;52.402;4.920;2023-04-25T09:44:51;4.03;;;1.30;;
17369;SDS011;8802;52.402;4.920;2023-04-25T09:47:19;3.50;;;1.10;;
17369;SDS011;8802;52.402;4.920;2023-04-25T09:49:48;5.78;;;1.55;;
17369;SDS011;8802;52.402;4.920;2023-04-25T09:52:16;5.60;;;1.58;;
17369;SDS011;8802;52.402;4.920;2023-04-25T09:54:44;4.78;;;0.82;;
17369;SDS011;8802;52.402;4.920;2023-04-25T09:57:13;3.63;;;0.90;;
17369;SDS011;8802;52.402;4.920;2023-04-25T09:59:44;3.58;;;1.00;;
17369;SDS011;8802;52.402;4.920;2023-04-25T10:02:13;3.63;;;1.10;;
17369;SDS011;8802;52.402;4.920;2023-04-25T10:04:41;2.95;;;0.95;;
17369;SDS011;8802;52.402;4.920;2023-04-25T10:07:10;4.18;;;1.38;;
17369;SDS011;8802;52.402;4.920;2023-04-25T10:09:38;2.00;;;0.90;;
17369;SDS011;8802;52.402;4.920;2023-04-25T10:12:06;3.17;;;0.95;;
17369;SDS011;8802;52.402;4.920;2023-04-25T10:14:35;1.88;;;0.80;;
17369;SDS011;8802;52.402;4.920;2023-04-25T10:17:02;3.95;;;0.75;;
17369;SDS011;8802;52.402;4.920;2023-04-25T10:19:29;1.95;;;0.80;;
17369;SDS011;8802;52.402;4.920;2023-04-25T10:22:00;2.17;;;0.70;;
17369;SDS011;8802;52.402;4.920;2023-04-25T10:24:33;1.98;;;1.05;;
17369;SDS011;8802;52.402;4.920;2023-04-25T10:27:01;2.28;;;0.68;;
17369;SDS011;8802;52.402;4.920;2023-04-25T10:29:29;2.33;;;0.95;;
17369;SDS011;8802;52.402;4.920;2023-04-25T10:31:57;5.57;;;1.58;;
17369;SDS011;8802;52.402;4.920;2023-04-25T10:34:25;5.15;;;1.15;;
17369;SDS011;8802;52.402;4.920;2023-04-25T10:37:05;4.60;;;1.45;;
17369;SDS011;8802;52.402;4.920;2023-04-25T10:39:34;7.93;;;2.67;;
17369;SDS011;8802;52.402;4.920;2023-04-25T10:42:01;5.00;;;1.25;;
17369;SDS011;8802;52.402;4.920;2023-04-25T10:44:29;4.00;;;1.30;;
17369;SDS011;8802;52.402;4.920;2023-04-25T10:46:58;4.72;;;1.00;;
17369;SDS011;8802;52.402;4.920;2023-04-25T10:49:29;4.78;;;1.17;;
17369;SDS011;8802;52.402;4.920;2023-04-25T10:52:10;4.75;;;1.23;;
17369;SDS011;8802;52.402;4.920;2023-04-25T10:54:40;5.57;;;1.27;;
17369;SDS011;8802;52.402;4.920;2023-04-25T10:57:08;6.10;;;1.33;;
17369;SDS011;8802;52.402;4.920;2023-04-25T10:59:53;5.68;;;1.35;;
17369;SDS011;8802;52.402;4.920;2023-04-25T11:02:26;5.43;;;1.15;;
17369;SDS011;8802;52.402;4.920;2023-04-25T11:04:54;4.75;;;1.17;;
17369;SDS011;8802;52.402;4.920;2023-04-25T11:07:23;4.22;;;1.08;;
17369;SDS011;8802;52.402;4.920;2023-04-25T11:09:56;3.85;;;1.08;;
17369;SDS011;8802;52.402;4.920;2023-04-25T11:12:26;4.65;;;1.15;;
17369;SDS011;8802;52.402;4.920;2023-04-25T11:14:58;4.20;;;1.27;;
17369;SDS011;8802;52.402;4.920;2023-04-25T11:17:27;3.38;;;1.00;;
17369;SDS011;8802;52.402;4.920;2023-04-25T11:19:54;3.70;;;1.02;;
17369;SDS011;8802;52.402;4.920;2023-04-25T11:22:22;5.50;;;1.20;;
17369;SDS011;8802;52.402;4.920;2023-04-25T11:24:49;4.72;;;0.98;;
17369;SDS011;8802;52.402;4.920;2023-04-25T11:27:16;3.40;;;1.15;;
17369;SDS011;8802;52.402;4.920;2023-04-25T11:29:43;4.03;;;1.10;;
17369;SDS011;8802;52.402;4.920;2023-04-25T11:32:12;4.90;;;0.90;;
17369;SDS011;8802;52.402;4.920;2023-04-25T11:34:42;6.68;;;1.23;;
17369;SDS011;8802;52.402;4.920;2023-04-25T11:37:10;4.50;;;1.00;;
17369;SDS011;8802;52.402;4.920;2023-04-25T11:39:37;3.95;;;1.15;;
17369;SDS011;8802;52.402;4.920;2023-04-25T11:42:04;5.90;;;1.00;;
17369;SDS011;8802;52.402;4.920;2023-04-25T11:44:31;3.15;;;1.02;;
17369;SDS011;8802;52.402;4.920;2023-04-25T11:46:58;2.83;;;1.00;;
17369;SDS011;8802;52.402;4.920;2023-04-25T11:49:29;3.25;;;1.15;;
17369;SDS011;8802;52.402;4.920;2023-04-25T11:51:58;5.85;;;1.45;;
17369;SDS011;8802;52.402;4.920;2023-04-25T11:54:25;3.53;;;1.13;;
17369;SDS011;8802;52.402;4.920;2023-04-25T11:56:52;3.75;;;1.13;;
17369;SDS011;8802;52.402;4.920;2023-04-25T11:59:22;2.50;;;0.88;;
17369;SDS011;8802;52.402;4.920;2023-04-25T12:01:50;4.25;;;0.90;;
17369;SDS011;8802;52.402;4.920;2023-04-25T12:04:18;3.22;;;0.95;;
17369;SDS011;8802;52.402;4.920;2023-04-25T12:06:46;2.65;;;0.75;;
17369;SDS011;8802;52.402;4.920;2023-04-25T12:09:16;2.85;;;0.75;;
17369;SDS011;8802;52.402;4.920;2023-04-25T12:11:44;2.33;;;0.60;;
17369;SDS011;8802;52.402;4.920;2023-04-25T12:14:12;4.32;;;0.90;;
17369;SDS011;8802;52.402;4.920;2023-04-25T12:16:47;1.83;;;0.65;;
17369;SDS011;8802;52.402;4.920;2023-04-25T12:19:15;4.88;;;1.00;;
17369;SDS011;8802;52.402;4.920;2023-04-25T12:21:43;3.95;;;1.05;;
17369;SDS011;8802;52.402;4.920;2023-04-25T12:24:11;2.45;;;1.00;;
17369;SDS011;8802;52.402;4.920;2023-04-25T12:26:50;4.70;;;0.93;;
17369;SDS011;8802;52.402;4.920;2023-04-25T12:29:20;4.05;;;1.38;;
17369;SDS011;8802;52.402;4.920;2023-04-25T12:31:48;6.30;;;1.20;;
17369;SDS011;8802;52.402;4.920;2023-04-25T12:34:16;3.67;;;1.40;;
17369;SDS011;8802;52.402;4.920;2023-04-25T12:36:43;2.53;;;1.10;;
17369;SDS011;8802;52.402;4.920;2023-04-25T12:39:14;5.07;;;1.17;;
17369;SDS011;8802;52.402;4.920;2023-04-25T12:41:41;2.28;;;0.90;;
17369;SDS011;8802;52.402;4.920;2023-04-25T12:44:09;5.70;;;1.45;;
17369;SDS011;8802;52.402;4.920;2023-04-25T12:46:36;3.55;;;1.25;;
17369;SDS011;8802;52.402;4.920;2023-04-25T12:49:04;5.20;;;1.30;;
17369;SDS011;8802;52.402;4.920;2023-04-25T12:51:32;2.70;;;1.10;;
17369;SDS011;8802;52.402;4.920;2023-04-25T12:53:59;3.40;;;1.17;;
17369;SDS011;8802;52.402;4.920;2023-04-25T12:56:26;4.38;;;1.50;;
17369;SDS011;8802;52.402;4.920;2023-04-25T12:58:53;4.45;;;1.35;;
17369;SDS011;8802;52.402;4.920;2023-04-25T13:01:22;4.68;;;1.27;;
17369;SDS011;8802;52.402;4.920;2023-04-25T13:03:49;3.67;;;1.00;;
17369;SDS011;8802;52.402;4.920;2023-04-25T13:06:16;2.90;;;1.35;;
17369;SDS011;8802;52.402;4.920;2023-04-25T13:08:44;3.13;;;1.23;;
17369;SDS011;8802;52.402;4.920;2023-04-25T13:11:11;5.28;;;1.23;;
17369;SDS011;8802;52.402;4.920;2023-04-25T13:13:39;4.90;;;1.20;;
17369;SDS011;8802;52.402;4.920;2023-04-25T13:16:07;4.35;;;1.40;;
17369;SDS011;8802;52.402;4.920;2023-04-25T13:18:35;3.95;;;1.40;;
17369;SDS011;8802;52.402;4.920;2023-04-25T13:21:02;4.82;;;1.33;;
17369;SDS011;8802;52.402;4.920;2023-04-25T13:23:29;4.65;;;1.20;;
17369;SDS011;8802;52.402;4.920;2023-04-25T13:25:57;4.35;;;1.10;;
17369;SDS011;8802;52.402;4.920;2023-04-25T13:28:24;4.78;;;1.08;;
17369;SDS011;8802;52.402;4.920;2023-04-25T13:30:51;4.93;;;1.30;;
17369;SDS011;8802;52.402;4.920;2023-04-25T13:33:18;3.17;;;1.00;;
17369;SDS011;8802;52.402;4.920;2023-04-25T13:35:47;5.85;;;1.23;;
17369;SDS011;8802;52.402;4.920;2023-04-25T13:38:19;4.70;;;0.90;;
17369;SDS011;8802;52.402;4.920;2023-04-25T13:40:47;3.65;;;0.88;;
17369;SDS011;8802;52.402;4.920;2023-04-25T13:43:14;3.88;;;1.00;;
17369;SDS011;8802;52.402;4.920;2023-04-25T13:45:41;4.43;;;1.15;;
17369;SDS011;8802;52.402;4.920;2023-04-25T13:48:08;4.78;;;0.90;;
17369;SDS011;8802;52.402;4.920;2023-04-25T13:50:35;3.15;;;1.00;;
17369;SDS011;8802;52.402;4.920;2023-04-25T13:53:03;2.83;;;0.90;;
17369;SDS011;8802;52.402;4.920;2023-04-25T13:55:30;2.60;;;1.02;;
17369;SDS011;8802;52.402;4.920;2023-04-25T13:57:57;3.75;;;1.08;;
17369;SDS011;8802;52.402;4.920;2023-04-25T14:00:24;5.03;;;1.00;;
17369;SDS011;8802;52.402;4.920;2023-04-25T14:02:51;3.22;;;1.00;;
17369;SDS011;8802;52.402;4.920;2023-04-25T14:05:18;4.40;;;1.00;;
17369;SDS011;8802;52.402;4.920;2023-04-25T14:07:45;4.22;;;1.23;;
17369;SDS011;8802;52.402;4.920;2023-04-25T14:10:13;4.22;;;1.00;;
17369;SDS011;8802;52.402;4.920;2023-04-25T14:12:40;4.43;;;1.15;;
17369;SDS011;8802;52.402;4.920;2023-04-25T14:15:07;4.93;;;1.27;;
17369;SDS011;8802;52.402;4.920;2023-04-25T14:17:35;3.53;;;1.08;;
17369;SDS011;8802;52.402;4.920;2023-04-25T14:20:03;3.67;;;1.13;;
17369;SDS011;8802;52.402;4.920;2023-04-25T14:22:31;3.47;;;0.85;;
17369;SDS011;8802;52.402;4.920;2023-04-25T14:24:57;1.65;;;0.93;;
17369;SDS011;8802;52.402;4.920;2023-04-25T14:27:26;2.83;;;0.80;;
17369;SDS011;8802;52.402;4.920;2023-04-25T14:29:53;2.50;;;0.68;;
17369;SDS011;8802;52.402;4.920;2023-04-25T14:32:19;4.40;;;1.25;;
17369;SDS011;8802;52.402;4.920;2023-04-25T14:34:46;3.88;;;1.30;;
17369;SDS011;8802;52.402;4.920;2023-04-25T14:37:14;4.53;;;1.15;;
17369;SDS011;8802;52.402;4.920;2023-04-25T14:39:41;3.85;;;1.08;;
17369;SDS011;8802;52.402;4.920;2023-04-25T14:42:08;3.63;;;1.25;;
17369;SDS011;8802;52.402;4.920;2023-04-25T14:44:37;2.72;;;1.42;;
17369;SDS011;8802;52.402;4.920;2023-04-25T14:47:04;3.55;;;1.17;;
17369;SDS011;8802;52.402;4.920;2023-04-25T14:49:31;5.28;;;1.30;;
17369;SDS011;8802;52.402;4.920;2023-04-25T14:51:58;5.72;;;1.40;;
17369;SDS011;8802;52.402;4.920;2023-04-25T14:54:26;3.38;;;1.13;;
17369;SDS011;8802;52.402;4.920;2023-04-25T14:56:53;2.72;;;1.42;;
17369;SDS011;8802;52.402;4.920;2023-04-25T14:59:19;3.75;;;1.55;;
17369;SDS011;8802;52.402;4.920;2023-04-25T15:01:49;8.25;;;1.50;;
17369;SDS011;8802;52.402;4.920;2023-04-25T15:04:16;5.30;;;1.42;;